createdAt,value
2019-02-21T00:01:18.686Z,67.83
2019-02-21T00:06:24.321Z,61.80
2019-02-21T00:11:30.498Z,56.47
2019-02-21T00:16:36.624Z,53.63
2019-02-21T00:21:42.702Z,55.47
2019-02-21T00:26:48.306Z,46.03
2019-02-21T00:31:54.620Z,45.17
2019-02-21T00:37:00.705Z,49.93
2019-02-21T00:42:06.808Z,51.07
2019-02-21T00:47:13.279Z,49.75
2019-02-21T00:52:19.372Z,46.80
2019-02-21T00:57:25.484Z,35.08
2019-02-21T01:02:31.571Z,54.55
2019-02-21T01:07:38.201Z,45.23
2019-02-21T01:12:44.119Z,54.98
2019-02-21T01:17:49.930Z,43.60
2019-02-21T01:22:55.609Z,43.23
2019-02-21T01:28:01.716Z,44.13
2019-02-21T01:33:07.379Z,42.03
2019-02-21T01:38:13.282Z,44.30
2019-02-21T01:43:18.932Z,43.13
2019-02-21T01:48:24.875Z,57.50
2019-02-21T01:53:30.555Z,47.17
2019-02-21T01:58:36.508Z,44.93
2019-02-21T02:03:42.186Z,43.80
2019-02-21T02:08:47.944Z,43.33
2019-02-21T02:13:53.567Z,35.47
2019-02-21T02:18:59.271Z,35.00
2019-02-21T02:24:04.954Z,39.57
2019-02-21T02:29:10.983Z,43.57
2019-02-21T02:34:16.872Z,47.13
2019-02-21T02:39:22.483Z,40.50
2019-02-21T02:44:28.126Z,50.00
2019-02-21T02:49:33.967Z,41.47
2019-02-21T02:54:39.580Z,41.90
2019-02-21T02:59:45.522Z,41.17
2019-02-21T03:04:51.232Z,40.40
2019-02-21T03:09:57.085Z,43.67
2019-02-21T03:15:02.677Z,44.43
2019-02-21T03:20:09.506Z,39.73
2019-02-21T03:25:15.173Z,40.43
2019-02-21T03:30:20.993Z,37.07
2019-02-21T03:35:26.671Z,35.37
2019-02-21T03:40:32.782Z,44.97
2019-02-21T03:45:38.894Z,36.13
2019-02-21T03:50:44.985Z,39.67
2019-02-21T03:55:50.698Z,38.87
2019-02-21T04:00:56.522Z,39.07
2019-02-21T04:06:02.317Z,43.40
2019-02-21T04:11:08.209Z,39.73
2019-02-21T04:16:13.826Z,42.73
2019-02-21T04:21:19.804Z,44.60
2019-02-21T04:26:25.674Z,40.60
2019-02-21T04:31:31.303Z,35.50
2019-02-21T04:36:36.929Z,37.07
2019-02-21T04:41:42.670Z,33.10
2019-02-21T04:46:48.333Z,33.83
2019-02-21T04:51:54.070Z,27.07
2019-02-21T04:56:59.674Z,30.80
2019-02-21T05:02:05.700Z,31.13
2019-02-21T05:07:11.594Z,25.50
2019-02-21T05:12:17.412Z,27.33
2019-02-21T05:17:23.517Z,28.70
2019-02-21T05:22:29.318Z,24.13
2019-02-21T05:27:37.834Z,26.80
2019-02-21T05:32:55.295Z,34.80
2019-02-21T05:38:10.128Z,28.90
2019-02-21T05:43:44.220Z,25.67
2019-02-21T05:49:17.017Z,22.63
2019-02-21T05:54:31.119Z,24.87
2019-02-21T06:00:10.806Z,30.03
2019-02-21T06:05:22.525Z,32.27
2019-02-21T06:10:59.077Z,29.43
2019-02-21T06:16:21.541Z,20.27
2019-02-21T06:21:50.897Z,20.40
2019-02-21T06:27:15.684Z,26.45
2019-02-21T06:32:21.595Z,20.90
2019-02-21T06:37:27.212Z,23.07
2019-02-21T06:42:33.009Z,27.10
2019-02-21T06:47:38.671Z,24.20
2019-02-21T06:52:44.523Z,26.03
2019-02-21T06:57:50.237Z,23.77
2019-02-21T07:02:56.444Z,27.53
2019-02-21T07:08:02.340Z,19.00
2019-02-21T07:13:07.969Z,25.97
2019-02-21T07:18:13.822Z,23.13
2019-02-21T07:23:19.978Z,30.63
2019-02-21T07:28:27.742Z,24.73
2019-02-21T07:33:33.278Z,20.50
2019-02-21T07:38:38.909Z,20.50
2019-02-21T07:43:45.229Z,24.63
2019-02-21T07:48:51.024Z,26.20
2019-02-21T07:53:56.971Z,19.37
2019-02-21T07:59:03.010Z,16.50
2019-02-21T08:04:08.775Z,32.57
2019-02-21T08:09:15.005Z,24.87
2019-02-21T08:14:20.892Z,28.57
2019-02-21T08:19:26.872Z,31.27
2019-02-21T08:24:32.517Z,25.20
2019-02-21T08:29:38.464Z,28.70
2019-02-21T08:34:48.276Z,35.37
2019-02-21T08:39:54.629Z,30.07
2019-02-21T08:45:00.378Z,28.17
2019-02-21T08:50:06.328Z,34.27
2019-02-21T08:55:11.973Z,24.67
2019-02-21T09:00:17.829Z,24.50
2019-02-21T09:05:23.739Z,31.50
2019-02-21T09:10:29.356Z,18.47
2019-02-21T09:15:35.177Z,33.00
2019-02-21T09:20:41.126Z,27.27
2019-02-21T09:25:49.492Z,26.33
2019-02-21T09:30:54.445Z,22.17
2019-02-21T09:36:00.283Z,25.87
2019-02-21T09:41:06.019Z,24.83
2019-02-21T09:46:12.571Z,23.77
2019-02-21T09:51:18.537Z,26.85
2019-02-21T09:56:30.276Z,29.37
2019-02-21T10:01:32.352Z,21.13
2019-02-21T10:06:38.382Z,23.47
2019-02-21T10:11:44.363Z,23.03
2019-02-21T10:16:50.091Z,19.93
2019-02-21T10:21:55.774Z,21.80
2019-02-21T10:27:01.698Z,19.63
2019-02-21T10:32:07.546Z,19.13
2019-02-21T10:37:13.310Z,24.83
2019-02-21T10:42:18.944Z,22.73
2019-02-21T10:47:24.626Z,19.10
2019-02-21T10:52:30.656Z,17.13
2019-02-21T10:57:36.511Z,20.67
2019-02-21T11:02:42.302Z,19.63
2019-02-21T11:07:48.531Z,23.87
2019-02-21T11:12:54.380Z,19.53
2019-02-21T11:18:00.003Z,22.63
2019-02-21T11:23:06.623Z,27.20
2019-02-21T11:28:12.784Z,18.23
2019-02-21T11:33:18.747Z,22.67
2019-02-21T11:38:25.013Z,25.47
2019-02-21T11:43:31.079Z,20.37
2019-02-21T11:48:36.698Z,25.07
2019-02-21T11:53:42.533Z,26.50
2019-02-21T11:58:48.210Z,20.57
2019-02-21T12:03:54.442Z,22.48
2019-02-21T12:09:00.370Z,21.83
2019-02-21T12:14:06.372Z,23.20
2019-02-21T12:19:12.476Z,23.37
2019-02-21T12:24:18.110Z,20.50
2019-02-21T12:29:23.840Z,25.60
2019-02-21T12:34:29.754Z,16.73
2019-02-21T12:39:36.397Z,22.33
2019-02-21T12:44:42.321Z,17.87
2019-02-21T12:49:48.552Z,19.00
2019-02-21T12:54:54.481Z,23.10
2019-02-21T13:00:00.419Z,18.93
2019-02-21T13:05:06.984Z,17.63
2019-02-21T13:15:20.571Z,19.25
2019-02-21T13:20:26.218Z,26.60
2019-02-21T13:25:31.926Z,19.50
2019-02-21T13:30:37.905Z,21.60
2019-02-21T13:35:52.237Z,20.83
2019-02-21T13:40:51.476Z,18.93
2019-02-21T13:45:58.077Z,14.13
2019-02-21T13:51:03.678Z,15.27
2019-02-21T13:56:09.482Z,18.30
2019-02-21T14:01:15.396Z,26.40
2019-02-21T14:06:21.164Z,23.20
2019-02-21T14:11:27.148Z,22.17
2019-02-21T14:16:32.965Z,25.00
2019-02-21T14:21:38.773Z,22.13
2019-02-21T14:26:44.932Z,26.73
2019-02-21T14:31:50.752Z,20.53
2019-02-21T14:36:56.485Z,27.55
2019-02-21T14:42:04.502Z,26.80
2019-02-21T14:47:10.517Z,22.57
2019-02-21T14:52:16.423Z,24.87
2019-02-21T14:57:22.093Z,24.82
2019-02-21T15:02:28.357Z,28.95
2019-02-21T15:07:34.365Z,24.33
2019-02-21T15:12:40.360Z,23.20
2019-02-21T15:17:46.595Z,27.58
2019-02-21T15:22:53.996Z,27.53
2019-02-21T15:28:00.064Z,25.53
2019-02-21T15:33:06.380Z,24.20
2019-02-21T15:38:19.900Z,26.07
2019-02-21T15:43:20.027Z,26.73
2019-02-21T15:48:26.093Z,28.07
2019-02-21T15:53:32.174Z,26.37
2019-02-21T15:58:38.309Z,29.53
2019-02-21T16:03:44.606Z,28.25
2019-02-21T16:08:50.382Z,36.30
2019-02-21T16:14:03.351Z,33.60
2019-02-21T16:19:04.391Z,32.77
2019-02-21T16:24:10.078Z,34.93
2019-02-21T16:29:16.109Z,33.00
2019-02-21T16:34:22.214Z,34.23
2019-02-21T16:39:28.349Z,31.60
2019-02-21T16:44:33.960Z,28.60
2019-02-21T16:49:39.924Z,40.23
2019-02-21T16:54:46.249Z,32.15
2019-02-21T16:59:52.190Z,29.13
2019-02-21T17:04:58.578Z,30.88
2019-02-21T17:10:04.628Z,37.40
2019-02-21T17:15:11.918Z,29.30
2019-02-21T17:20:18.150Z,24.20
2019-02-21T17:25:24.005Z,26.17
2019-02-21T17:30:29.775Z,24.40
2019-02-21T17:35:35.516Z,20.67
2019-02-21T17:40:41.338Z,25.87
2019-02-21T17:45:47.539Z,23.00
2019-02-21T17:50:53.913Z,15.83
2019-02-21T17:55:59.559Z,14.03
2019-02-21T18:01:05.612Z,15.03
2019-02-21T18:06:11.351Z,18.57
2019-02-21T18:11:17.422Z,12.70
2019-02-21T18:16:23.311Z,10.00
2019-02-21T18:21:29.413Z,9.30
2019-02-21T18:26:35.097Z,15.03
2019-02-21T18:31:41.433Z,13.90
2019-02-21T18:36:47.230Z,14.33
2019-02-21T18:41:53.463Z,12.03
2019-02-21T18:46:59.639Z,11.03
2019-02-21T18:52:05.385Z,12.97
2019-02-21T18:57:12.317Z,12.77
2019-02-21T19:02:19.931Z,14.33
2019-02-21T19:07:25.589Z,12.20
2019-02-21T19:12:31.967Z,10.55
2019-02-21T19:17:37.577Z,9.10
2019-02-21T19:22:43.388Z,12.57
2019-02-21T19:27:49.121Z,15.10
2019-02-21T19:32:54.870Z,13.57
2019-02-21T19:38:09.813Z,18.27
2019-02-21T19:43:08.015Z,20.80
2019-02-21T19:48:13.732Z,19.57
2019-02-21T19:53:19.422Z,19.00
2019-02-21T19:58:25.273Z,24.20
2019-02-21T20:03:30.880Z,20.53
2019-02-21T20:08:39.627Z,17.87
2019-02-21T20:13:45.400Z,18.80
2019-02-21T20:18:51.137Z,16.27
2019-02-21T20:23:56.768Z,27.30
2019-02-21T20:29:02.573Z,19.53
2019-02-21T20:34:08.257Z,22.37
2019-02-21T20:39:14.142Z,19.77
2019-02-21T20:44:19.748Z,20.90
2019-02-21T20:49:25.560Z,21.50
2019-02-21T20:54:31.385Z,25.10
2019-02-21T20:59:37.131Z,26.10
2019-02-21T21:04:42.838Z,23.97
2019-02-21T21:09:48.722Z,25.30
2019-02-21T21:14:54.364Z,25.70
2019-02-21T21:20:00.335Z,22.93
2019-02-21T21:25:07.180Z,29.40
2019-02-21T21:35:19.083Z,31.95
2019-02-21T21:40:25.173Z,29.23
2019-02-21T21:45:30.814Z,31.80
2019-02-21T21:50:36.512Z,31.33
2019-02-21T21:55:42.180Z,34.37
2019-02-21T22:00:48.434Z,28.57
2019-02-21T22:05:54.596Z,31.97
2019-02-21T22:11:01.105Z,25.95
2019-02-21T22:16:07.752Z,28.73
2019-02-21T22:21:14.045Z,28.83
2019-02-21T22:26:20.379Z,27.50
2019-02-21T22:31:26.732Z,24.20
2019-02-21T22:36:32.926Z,25.37
2019-02-21T22:41:39.449Z,26.57
2019-02-21T22:46:45.992Z,26.23
2019-02-21T22:51:52.171Z,28.42
2019-02-21T22:56:58.223Z,28.23
2019-02-21T23:02:04.492Z,22.90
2019-02-21T23:07:42.328Z,20.52
2019-02-21T23:17:53.312Z,25.40
2019-02-21T23:22:59.522Z,22.13
2019-02-21T23:28:06.061Z,24.43
2019-02-21T23:33:12.743Z,23.57
2019-02-21T23:38:19.342Z,27.07
2019-02-21T23:43:26.096Z,23.40
2019-02-21T23:48:32.839Z,28.35
2019-02-21T23:58:44.524Z,24.82
